createdAt,value
2018-07-28T01:28:02.714Z,97446.35
2018-07-28T01:30:32.466Z,97444.95
2018-07-28T01:33:01.726Z,97437.52
2018-07-28T01:35:30.402Z,97437.26
2018-07-28T01:37:58.994Z,97435.05
2018-07-28T01:40:27.542Z,97431.91
2018-07-28T01:42:56.082Z,97428.78
2018-07-28T01:45:24.644Z,97432.97
2018-07-28T01:47:53.205Z,97428.55
2018-07-28T01:50:21.730Z,97427.92
2018-07-28T01:52:50.271Z,97430.21
2018-07-28T01:55:18.778Z,97433.58
2018-07-28T01:57:47.349Z,97434.39
2018-07-28T02:00:15.867Z,97433.58
2018-07-28T02:02:44.402Z,97428.12
2018-07-28T02:05:12.919Z,97424.45
2018-07-28T02:07:41.494Z,97418.75
2018-07-28T02:10:10.575Z,97415.23
2018-07-28T02:12:39.526Z,97424.37
2018-07-28T02:15:08.691Z,97421.77
2018-07-28T02:17:37.262Z,97415.16
2018-07-28T02:20:07.527Z,97414.36
2018-07-28T02:22:36.114Z,97420.22
2018-07-28T02:25:08.317Z,97419.35
2018-07-28T02:27:36.894Z,97419.97
2018-07-28T02:30:06.029Z,97412.17
2018-07-28T02:32:35.062Z,97405.97
2018-07-28T02:35:04.033Z,97409.11
2018-07-28T02:37:32.939Z,97403.61
2018-07-28T02:40:01.486Z,97405.51
2018-07-28T02:42:30.047Z,97412.59
2018-07-28T02:44:58.962Z,97416.80
2018-07-28T02:47:27.479Z,97407.89
2018-07-28T02:49:56.049Z,97401.16
2018-07-28T02:52:24.638Z,97402.69
2018-07-28T02:54:53.173Z,97408.66
2018-07-28T02:57:21.689Z,97411.50
2018-07-28T02:59:50.221Z,97408.96
2018-07-28T03:02:18.804Z,97404.73
2018-07-28T03:04:47.327Z,97395.84
2018-07-28T03:07:15.870Z,97397.39
2018-07-28T03:09:44.441Z,97394.82
2018-07-28T03:12:12.965Z,97394.48
2018-07-28T03:14:41.482Z,97399.08
2018-07-28T03:17:10.066Z,97400.30
2018-07-28T03:19:38.669Z,97397.47
2018-07-28T03:22:07.599Z,97397.47
2018-07-28T03:24:36.114Z,97399.19
2018-07-28T03:27:05.031Z,97398.69
2018-07-28T03:29:33.518Z,97395.39
2018-07-28T03:32:02.209Z,97397.14
2018-07-28T03:34:30.753Z,97393.89
2018-07-28T03:36:59.313Z,97392.12
2018-07-28T03:39:27.835Z,97404.41
2018-07-28T03:41:56.469Z,97409.39
2018-07-28T03:44:25.061Z,97410.41
2018-07-28T03:46:53.615Z,97409.72
2018-07-28T03:49:22.242Z,97407.07
2018-07-28T03:51:50.669Z,97403.17
2018-07-28T03:54:19.223Z,97414.98
2018-07-28T03:56:47.717Z,97417.80
2018-07-28T03:59:16.270Z,97417.68
2018-07-28T04:01:44.822Z,97423.03
2018-07-28T04:04:13.417Z,97419.84
2018-07-28T04:06:41.940Z,97419.90
2018-07-28T04:09:11.296Z,97423.05
2018-07-28T04:11:39.883Z,97425.42
2018-07-28T04:14:08.470Z,97425.23
2018-07-28T04:16:36.967Z,97427.44
2018-07-28T04:19:06.034Z,97431.13
2018-07-28T04:21:34.505Z,97429.26
2018-07-28T04:24:03.089Z,97431.75
2018-07-28T04:26:31.610Z,97439.07
2018-07-28T04:29:00.166Z,97443.91
2018-07-28T04:31:28.709Z,97448.51
2018-07-28T04:33:57.553Z,97455.48
2018-07-28T04:36:26.148Z,97453.91
2018-07-28T06:54:53.237Z,97475.72
2018-07-28T06:57:21.720Z,97488.41
2018-07-28T06:59:50.292Z,97479.24
2018-07-28T07:02:18.836Z,97483.02
2018-07-28T07:04:47.397Z,97484.33
2018-07-28T07:07:16.274Z,97479.81
2018-07-28T07:09:44.849Z,97475.90
2018-07-28T07:12:13.342Z,97485.09
2018-07-28T07:14:41.897Z,97483.97
2018-07-28T07:17:10.451Z,97478.95
2018-07-28T07:19:38.981Z,97479.11
2018-07-28T07:22:07.537Z,97480.59
2018-07-28T07:24:36.168Z,97483.41
2018-07-28T07:27:04.662Z,97478.42
2018-07-28T07:29:33.149Z,97474.59
2018-07-28T07:32:01.670Z,97470.45
2018-07-28T07:34:30.184Z,97466.02
2018-07-28T07:36:58.699Z,97473.42
2018-07-28T07:39:27.231Z,97468.07
2018-07-28T07:41:55.806Z,97478.77
2018-07-28T07:44:24.333Z,97480.94
2018-07-28T07:46:52.868Z,97489.58
2018-07-28T07:49:21.801Z,97478.97
2018-07-28T07:51:50.353Z,97482.06
2018-07-28T07:54:18.844Z,97480.08
2018-07-28T07:56:47.369Z,97474.38
2018-07-28T07:59:15.887Z,97482.21
2018-07-28T08:01:44.391Z,97475.27
2018-07-28T08:04:12.864Z,97478.45
2018-07-28T08:06:41.384Z,97480.37
2018-07-28T08:09:09.975Z,97479.55
2018-07-28T08:11:38.489Z,97487.59
2018-07-28T08:14:07.103Z,97478.08
2018-07-28T08:16:35.602Z,97483.03
2018-07-28T08:19:04.091Z,97490.38
2018-07-28T08:21:32.641Z,97488.50
2018-07-28T08:24:01.122Z,97482.19
2018-07-28T08:26:29.626Z,97477.39
2018-07-28T08:28:58.093Z,97469.59
2018-07-28T08:31:26.605Z,97469.36
2018-07-28T08:33:55.081Z,97468.09
2018-07-28T08:36:23.591Z,97477.72
2018-07-28T08:38:52.154Z,97490.64
2018-07-28T08:41:20.650Z,97486.77
2018-07-28T08:43:49.094Z,97480.43
2018-07-28T08:46:17.615Z,97477.06
2018-07-28T08:48:46.688Z,97486.81
2018-07-28T08:51:16.078Z,97482.70
2018-07-28T08:53:44.650Z,97489.81
2018-07-28T08:56:13.126Z,97477.38
2018-07-28T08:58:41.622Z,97484.17
2018-07-28T09:01:10.138Z,97483.45
2018-07-28T09:03:38.897Z,97489.47
2018-07-28T09:06:07.413Z,97481.18
2018-07-28T09:08:36.126Z,97488.47
2018-07-28T09:11:04.683Z,97482.95
2018-07-28T09:13:33.254Z,97482.47
2018-07-28T09:16:01.851Z,97479.66
2018-07-28T09:18:30.338Z,97478.70
2018-07-28T09:20:59.096Z,97479.83
2018-07-28T09:23:28.004Z,97474.77
2018-07-28T09:25:57.348Z,97468.38
2018-07-28T09:28:25.825Z,97490.23
2018-07-28T09:30:54.303Z,97478.39
2018-07-28T09:33:22.868Z,97486.94
2018-07-28T09:35:51.351Z,97481.86
2018-07-28T09:38:19.902Z,97486.56
2018-07-28T09:40:48.346Z,97482.96
2018-07-28T09:43:17.067Z,97482.59
2018-07-28T09:45:45.689Z,97479.09
2018-07-28T09:48:14.535Z,97479.63
2018-07-28T09:50:43.209Z,97484.11
2018-07-28T09:53:12.341Z,97481.81
2018-07-28T09:55:41.001Z,97486.53
2018-07-28T09:58:09.626Z,97481.28
2018-07-28T10:00:43.449Z,97479.03
2018-07-28T10:03:11.961Z,97478.22
2018-07-28T10:05:40.447Z,97479.10
2018-07-28T10:08:08.969Z,97471.13
2018-07-28T10:10:37.462Z,97470.34
2018-07-28T10:13:05.999Z,97464.58
2018-07-28T10:15:34.466Z,97471.40
2018-07-28T10:18:03.827Z,97456.37
2018-07-28T10:20:32.322Z,97458.56
2018-07-28T10:23:00.935Z,97449.63
2018-07-28T10:25:29.351Z,97443.05
2018-07-28T10:27:57.855Z,97448.94
2018-07-28T10:30:26.391Z,97450.63
2018-07-28T10:32:55.339Z,97439.09
2018-07-28T10:35:23.870Z,97436.44
2018-07-28T10:37:53.079Z,97446.44
2018-07-28T10:40:21.621Z,97438.98
2018-07-28T10:42:50.150Z,97430.63
2018-07-28T10:45:18.672Z,97433.45
2018-07-28T10:47:47.219Z,97437.58
2018-07-28T10:50:15.711Z,97436.16
2018-07-28T10:52:44.722Z,97432.77
2018-07-28T10:55:13.283Z,97426.77
2018-07-28T10:57:41.846Z,97426.22
2018-07-28T11:00:10.731Z,97422.95
2018-07-28T11:02:40.029Z,97423.02
2018-07-28T11:05:08.990Z,97421.52
2018-07-28T11:07:37.541Z,97415.63
2018-07-28T11:10:07.474Z,97410.58
2018-07-28T11:12:36.007Z,97410.84
2018-07-28T11:15:05.470Z,97406.11
2018-07-28T11:17:33.955Z,97398.75
2018-07-28T11:20:02.534Z,97403.61
2018-07-28T11:22:31.063Z,97396.06
2018-07-28T11:24:59.573Z,97399.95
2018-07-28T11:27:28.077Z,97377.74
2018-07-28T11:29:56.599Z,97378.07
2018-07-28T11:32:36.313Z,97373.13
2018-07-28T11:35:16.139Z,97360.60
2018-07-28T11:38:05.770Z,97364.34
2018-07-28T11:40:45.941Z,97367.17
2018-07-28T11:43:26.142Z,97368.69
2018-07-28T11:45:55.143Z,97384.85
2018-07-28T11:48:23.585Z,97379.17
2018-07-28T11:50:52.077Z,97374.30
2018-07-28T11:53:20.585Z,97379.00
2018-07-28T11:55:49.153Z,97371.44
2018-07-28T11:58:17.751Z,97373.05
2018-07-28T12:00:46.194Z,97376.32
2018-07-28T12:03:14.666Z,97372.63
2018-07-28T12:05:43.195Z,97372.77
2018-07-28T12:08:11.691Z,97374.16
2018-07-28T12:10:40.212Z,97368.94
2018-07-28T12:13:08.765Z,97371.37
2018-07-28T12:15:37.331Z,97362.93
2018-07-28T12:18:06.024Z,97357.14
2018-07-28T12:20:34.529Z,97356.55
2018-07-28T12:23:03.019Z,97353.44
2018-07-28T12:25:31.538Z,97353.89
2018-07-28T12:28:00.065Z,97354.67
2018-07-28T12:30:28.606Z,97361.92
2018-07-28T12:32:57.105Z,97367.98
2018-07-28T12:35:25.650Z,97364.48
2018-07-28T12:37:54.162Z,97366.14
2018-07-28T12:40:22.726Z,97365.64
2018-07-28T12:42:51.218Z,97369.30
2018-07-28T12:45:19.794Z,97372.10
2018-07-28T12:47:48.327Z,97366.34
2018-07-28T12:50:16.915Z,97371.39
2018-07-28T12:54:09.898Z,97378.39
2018-07-28T12:56:38.474Z,97391.94
2018-07-28T12:59:07.058Z,97391.55
2018-07-28T13:01:35.642Z,97391.61
2018-07-28T13:04:04.171Z,97387.48
2018-07-28T13:06:32.717Z,97390.96
2018-07-28T13:09:01.253Z,97394.50
2018-07-28T13:11:29.807Z,97388.46
2018-07-28T13:13:58.313Z,97383.12
2018-07-28T13:16:26.894Z,97382.84
2018-07-28T13:18:55.385Z,97381.66
2018-07-28T13:21:23.983Z,97385.73
2018-07-28T13:23:52.479Z,97374.55
2018-07-28T13:26:20.993Z,97370.38
2018-07-28T13:28:49.478Z,97361.36
2018-07-28T13:31:17.986Z,97367.09
2018-07-28T13:33:46.468Z,97357.00
2018-07-28T13:36:14.971Z,97356.60
2018-07-28T13:38:43.438Z,97354.83
2018-07-28T13:41:11.970Z,97359.69
2018-07-28T13:43:40.450Z,97364.20
2018-07-28T13:46:08.999Z,97369.97
2018-07-28T15:46:35.628Z,97453.63
2018-07-28T15:49:04.535Z,97456.42
2018-07-28T15:51:32.974Z,97458.09
2018-07-28T15:54:01.459Z,97453.77
2018-07-28T15:56:29.942Z,97452.33
2018-07-28T15:58:58.430Z,97450.00
2018-07-28T16:01:26.889Z,97458.47
2018-07-28T16:03:55.378Z,97445.20
2018-07-28T16:06:23.853Z,97452.75
2018-07-28T16:08:52.406Z,97449.98
2018-07-28T16:11:20.884Z,97451.17
2018-07-28T16:13:49.386Z,97449.23
2018-07-28T16:16:17.879Z,97451.94
2018-07-28T16:18:46.408Z,97454.48
2018-07-28T16:21:14.870Z,97445.34
2018-07-28T16:23:43.385Z,97448.34
2018-07-28T16:26:11.845Z,97453.31
2018-07-28T16:28:40.397Z,97456.55
2018-07-28T16:31:08.929Z,97451.27
2018-07-28T16:33:37.423Z,97448.27
2018-07-28T16:36:05.910Z,97455.81
2018-07-28T16:38:34.422Z,97455.10
2018-07-28T16:41:02.952Z,97461.33
2018-07-28T16:43:31.449Z,97459.19
2018-07-28T16:45:59.942Z,97455.78
2018-07-28T16:48:28.413Z,97452.39
2018-07-28T16:50:56.873Z,97461.41
2018-07-28T16:53:25.374Z,97462.37
2018-07-28T16:55:53.826Z,97460.04
2018-07-28T16:58:22.365Z,97464.97
2018-07-28T17:00:50.870Z,97470.67
2018-07-28T17:03:19.382Z,97479.55
2018-07-28T17:05:47.995Z,97479.75
2018-07-28T17:08:16.480Z,97485.53
2018-07-28T17:10:44.955Z,97497.48
2018-07-28T17:13:13.443Z,97498.17
2018-07-28T17:15:41.901Z,97491.94
2018-07-28T17:18:10.393Z,97498.61
2018-07-28T17:20:38.854Z,97499.70
2018-07-28T17:23:07.374Z,97503.34
2018-07-28T17:25:35.811Z,97497.20
2018-07-28T17:28:04.311Z,97494.50
2018-07-28T17:30:32.772Z,97500.17
2018-07-28T17:33:01.246Z,97508.80
2018-07-28T17:35:30.078Z,97504.53
2018-07-28T17:37:58.542Z,97513.28
2018-07-28T17:40:27.026Z,97515.48
2018-07-28T17:42:55.507Z,97515.98
2018-07-28T17:45:24.007Z,97524.59
2018-07-28T17:47:52.466Z,97527.98
2018-07-28T17:50:20.989Z,97538.00
2018-07-28T17:52:49.477Z,97535.86
2018-07-28T17:55:17.981Z,97539.12
2018-07-28T17:57:46.457Z,97542.87
2018-07-28T18:00:15.039Z,97545.02
2018-07-28T18:02:43.504Z,97549.02
2018-07-28T18:05:12.025Z,97546.87
2018-07-28T18:07:40.731Z,97548.67
2018-07-28T18:10:09.174Z,97552.91
2018-07-28T18:12:37.637Z,97566.00
2018-07-28T18:15:06.476Z,97563.96
2018-07-28T18:17:34.942Z,97574.02
2018-07-28T18:20:03.524Z,97579.13
2018-07-28T18:22:32.022Z,97581.96
2018-07-28T18:25:00.522Z,97577.64
2018-07-28T18:27:28.984Z,97594.84
2018-07-28T18:29:57.480Z,97590.08
2018-07-28T18:32:26.030Z,97591.44
2018-07-28T18:34:54.553Z,97591.63
2018-07-28T18:37:23.019Z,97591.08
2018-07-28T18:39:51.517Z,97597.30
2018-07-28T18:42:19.990Z,97599.20
2018-07-28T18:44:48.509Z,97600.75
2018-07-28T18:47:16.995Z,97604.17
2018-07-28T18:49:45.489Z,97606.22
2018-07-28T18:52:13.958Z,97615.54
2018-07-28T18:54:42.458Z,97616.91
2018-07-28T18:57:10.949Z,97617.46
2018-07-28T18:59:39.450Z,97627.71
2018-07-28T19:02:07.985Z,97626.34
2018-07-28T19:04:36.508Z,97630.52
2018-07-28T19:07:05.004Z,97641.31
2018-07-28T19:09:38.757Z,97649.39
2018-07-28T19:12:07.625Z,97655.27
2018-07-28T19:14:38.381Z,97660.10
2018-07-28T19:17:07.223Z,97669.88
2018-07-28T19:19:35.717Z,97674.18
2018-07-28T19:22:08.373Z,97674.22
2018-07-28T19:24:36.900Z,97676.36
2018-07-28T19:27:05.399Z,97681.61
2018-07-28T19:29:42.026Z,97683.37
2018-07-28T19:32:10.743Z,97690.41
2018-07-28T19:34:39.410Z,97697.24
2018-07-28T19:37:13.080Z,97694.61
2018-07-28T19:39:41.580Z,97707.19
2018-07-28T19:42:15.410Z,97705.63
2018-07-28T19:44:43.910Z,97708.95
2018-07-28T19:47:12.378Z,97711.69
2018-07-28T19:49:40.827Z,97725.02
2018-07-28T19:52:09.298Z,97727.09
2018-07-28T19:54:37.758Z,97726.86
2018-07-28T19:57:06.502Z,97733.44
2018-07-28T19:59:34.991Z,97727.34
2018-07-28T20:02:03.617Z,97740.07
2018-07-28T20:04:32.065Z,97729.86
2018-07-28T20:07:00.587Z,97730.11
2018-07-28T20:09:29.098Z,97730.34
2018-07-28T20:11:57.577Z,97724.88
2018-07-28T20:14:26.070Z,97731.52
2018-07-28T20:16:54.873Z,97734.58
2018-07-28T20:19:23.470Z,97731.89
2018-07-28T20:21:51.954Z,97738.86
2018-07-28T20:24:20.398Z,97731.48
2018-07-28T20:26:48.905Z,97735.55
2018-07-28T20:29:17.353Z,97730.09
2018-07-28T20:31:45.822Z,97734.28
2018-07-28T20:34:15.161Z,97739.19
2018-07-28T20:36:43.654Z,97744.83
2018-07-28T20:39:12.862Z,97742.09
2018-07-28T20:41:41.337Z,97741.88
2018-07-28T20:44:09.802Z,97736.81
2018-07-28T20:46:38.327Z,97740.23
2018-07-28T20:49:06.841Z,97747.27
2018-07-28T20:51:35.370Z,97752.55
2018-07-28T20:54:03.871Z,97749.78
2018-07-28T20:56:32.363Z,97752.67
2018-07-28T20:59:00.826Z,97755.95
2018-07-28T21:01:29.327Z,97758.70
2018-07-28T21:03:57.809Z,97757.89
2018-07-28T21:06:26.298Z,97761.91
2018-07-28T21:08:54.773Z,97764.88
2018-07-28T21:11:23.277Z,97765.45
2018-07-28T21:13:51.738Z,97762.63
2018-07-28T21:16:20.248Z,97782.98
2018-07-28T21:18:48.752Z,97780.70
2018-07-28T21:21:17.282Z,97783.59
2018-07-28T21:23:45.745Z,97778.91
2018-07-28T21:26:14.207Z,97784.69
2018-07-28T21:28:42.713Z,97780.83
2018-07-28T21:31:11.227Z,97779.77
2018-07-28T21:33:39.790Z,97786.58
2018-07-28T21:36:08.289Z,97790.13
2018-07-28T21:38:36.806Z,97788.92
2018-07-28T21:41:05.293Z,97784.83
2018-07-28T21:43:33.818Z,97796.94
2018-07-28T21:46:02.314Z,97808.33
2018-07-28T21:48:30.916Z,97801.35
2018-07-28T21:50:59.423Z,97805.83
2018-07-28T21:53:27.946Z,97807.34
2018-07-28T21:55:56.553Z,97810.75
2018-07-28T21:58:25.074Z,97812.27
2018-07-28T22:00:58.245Z,97817.70
2018-07-28T22:03:27.493Z,97818.13
2018-07-28T22:05:55.988Z,97819.98
2018-07-28T22:08:24.541Z,97826.63
2018-07-28T22:10:53.038Z,97829.05
2018-07-28T22:13:21.596Z,97825.73
2018-07-28T22:15:50.210Z,97833.45
2018-07-28T22:18:18.998Z,97842.30
2018-07-28T22:20:47.949Z,97845.83
2018-07-28T22:23:16.494Z,97846.51
2018-07-28T22:25:45.000Z,97842.20
2018-07-28T22:28:13.553Z,97847.75
2018-07-28T22:30:42.142Z,97844.52
2018-07-28T22:33:10.734Z,97842.25
2018-07-28T22:35:39.234Z,97846.51
2018-07-28T22:38:07.770Z,97849.69
2018-07-28T22:40:36.389Z,97853.27
2018-07-28T22:43:04.954Z,97849.24
2018-07-28T22:45:33.440Z,97851.73
2018-07-28T22:48:01.986Z,97847.19
2018-07-28T22:50:30.526Z,97853.48
2018-07-28T22:52:59.032Z,97852.67
2018-07-28T22:55:27.509Z,97847.73
2018-07-28T22:57:56.036Z,97848.33
2018-07-28T23:00:24.550Z,97861.57
2018-07-28T23:02:53.110Z,97861.35
2018-07-28T23:05:21.638Z,97860.94
2018-07-28T23:07:50.263Z,97860.31
2018-07-28T23:10:18.763Z,97858.35
2018-07-28T23:12:47.327Z,97863.12
2018-07-28T23:15:15.865Z,97865.29
2018-07-28T23:17:44.771Z,97869.70
2018-07-28T23:20:13.305Z,97875.67
2018-07-28T23:22:41.907Z,97880.03
2018-07-28T23:25:10.549Z,97883.92
2018-07-28T23:27:39.159Z,97884.42
2018-07-28T23:30:09.977Z,97882.58
2018-07-28T23:32:38.961Z,97885.12
2018-07-28T23:35:07.823Z,97882.39
2018-07-28T23:37:36.350Z,97884.75
2018-07-28T23:40:05.057Z,97886.92
2018-07-28T23:42:33.675Z,97883.21
2018-07-28T23:45:02.295Z,97883.84
2018-07-28T23:47:30.782Z,97877.58
2018-07-28T23:49:59.380Z,97880.66
2018-07-28T23:52:27.884Z,97884.73
2018-07-28T23:54:56.673Z,97881.16
2018-07-28T23:57:25.230Z,97883.56
2018-07-28T23:59:53.778Z,97885.78
